Time;durP1;ratioP1;P1;durP2;ratioP2;P2;SDS_P1;SDS_P2;PMS_P1;PMS_P2;Temp;Humidity;BMP_temperature;BMP_pressure;BME280_temperature;BME280_humidity;BME280_pressure;Samples;Min_cycle;Max_cycle;Signal;HPM_P1;HPM_P2
2023/12/05 00:01:41;;;;;;;30.92;12.02;;;-0.70;99.90;;;-2.45;78.02;100897.75;4919977;28;20170;-83
2023/12/05 00:04:06;;;;;;;41.28;17.42;;;-0.70;99.90;;;-2.43;78.55;100890.88;4928633;28;20052;-86
2023/12/05 00:06:32;;;;;;;39.55;16.42;;;-0.70;99.90;;;-2.48;78.17;100888.28;4896257;28;20029;-85
2023/12/05 00:08:58;;;;;;;40.97;17.42;;;-0.70;99.90;;;-2.44;78.32;100884.03;4901328;28;20040;-84
2023/12/05 00:11:33;;;;;;;43.42;13.70;;;-0.70;99.90;;;-2.45;78.54;100890.00;4901702;28;20041;-84
2023/12/05 00:13:59;;;;;;;29.25;12.43;;;-0.70;99.90;;;-2.49;77.83;100886.53;4912631;28;20038;-83
2023/12/05 00:16:34;;;;;;;43.38;17.08;;;-0.70;99.90;;;-2.49;78.09;100876.22;4891778;28;20044;-84
2023/12/05 00:19:00;;;;;;;43.65;17.95;;;;;;;-2.46;77.96;100875.41;4901258;28;20702;-84
2023/12/05 00:21:26;;;;;;;43.05;16.70;;;-0.70;99.90;;;-2.49;78.17;100881.38;4893677;28;20272;-85
2023/12/05 00:23:51;;;;;;;39.83;16.55;;;-0.70;99.90;;;-2.48;78.14;100884.84;4900397;28;20046;-85
2023/12/05 00:26:18;;;;;;;39.28;14.40;;;-0.70;99.90;;;-2.49;78.02;100873.63;4910686;28;20054;-86
2023/12/05 00:28:51;;;;;;;49.47;19.02;;;-0.70;99.90;;;-2.50;78.30;100873.63;4891682;28;20050;-85
2023/12/05 00:31:16;;;;;;;22.75;9.68;;;-0.70;99.90;;;-2.56;78.18;100876.16;4951260;28;20036;-86
2023/12/05 00:33:47;;;;;;;43.03;14.80;;;-0.70;99.90;;;-2.54;78.54;100877.91;4925986;28;20033;-84
2023/12/05 00:36:20;;;;;;;40.13;15.45;;;-0.80;99.90;;;-2.57;78.49;100872.72;4869284;28;20037;-86
2023/12/05 00:38:50;;;;;;;42.00;17.92;;;-0.80;99.90;;;-2.55;78.22;100875.28;4892621;28;20042;-86
2023/12/05 00:41:25;;;;;;;44.63;17.50;;;-0.80;99.90;;;-2.55;78.28;100867.56;4890714;28;20081;-85
2023/12/05 00:43:52;;;;;;;39.83;15.23;;;-0.80;99.90;;;-2.57;78.45;100877.88;4889642;28;20042;-84
2023/12/05 00:46:18;;;;;;;37.38;14.38;;;-0.80;99.90;;;-2.61;78.17;100872.66;4915217;28;20046;-84
2023/12/05 00:48:53;;;;;;;43.95;16.58;;;-0.80;99.90;;;-2.64;78.57;100870.06;4915398;28;20041;-86
2023/12/05 00:51:19;;;;;;;43.78;18.15;;;-0.80;99.90;;;-2.65;78.49;100864.03;4870173;28;20124;-82
2023/12/05 00:53:57;;;;;;;30.83;12.38;;;-0.80;99.90;;;-2.69;78.35;100860.56;4935375;28;20117;-86
2023/12/05 00:56:25;;;;;;;45.88;18.75;;;-0.90;99.90;;;-2.67;78.80;100862.31;4919198;28;20041;-84
2023/12/05 00:59:00;;;;;;;47.83;18.10;;;-0.90;99.90;;;-2.64;78.87;100852.00;4924457;28;20047;-84
2023/12/05 01:01:27;;;;;;;43.00;14.60;;;;;;;-2.65;78.68;100858.03;4897581;28;20057;-86
2023/12/05 01:04:02;;;;;;;46.63;19.00;;;-0.90;99.90;;;-2.66;78.94;100846.84;4900437;28;20043;-85
2023/12/05 01:06:27;;;;;;;46.55;19.00;;;-0.90;99.90;;;-2.64;79.07;100845.13;4919341;28;20641;-85
2023/12/05 01:08:53;;;;;;;45.25;18.58;;;-0.90;99.90;;;-2.63;79.19;100844.31;4942104;28;20030;-84
2023/12/05 01:11:20;;;;;;;49.92;19.33;;;-0.90;99.90;;;-2.64;79.80;100841.69;4911069;28;20049;-85
2023/12/05 01:13:55;;;;;;;46.95;17.38;;;-0.90;99.90;;;-2.69;79.74;100842.53;4911254;28;20058;-86
2023/12/05 01:16:21;;;;;;;34.23;11.77;;;-0.90;99.90;;;-2.75;79.68;100837.31;4941393;28;20364;-85
2023/12/05 01:18:47;;;;;;;40.58;15.52;;;;;;;-2.76;79.89;100830.44;4921401;28;20029;-82
2023/12/05 01:21:13;;;;;;;34.90;13.80;;;-1.00;99.90;;;-2.78;79.76;100832.13;4992229;28;20039;-85
2023/12/05 01:23:39;;;;;;;47.38;19.23;;;-1.00;99.90;;;-2.79;80.02;100830.38;4909089;28;20406;-85
2023/12/05 01:26:16;;;;;;;43.28;17.67;;;;;;;-2.76;80.49;100833.00;4924073;28;20135;-85
2023/12/05 01:28:42;;;;;;;47.17;19.15;;;-1.00;99.90;;;-2.76;79.80;100829.56;4981993;28;20389;-85
2023/12/05 01:31:20;;;;;;;43.30;19.25;;;;;;;-2.74;79.93;100826.16;4890920;28;20041;-85
2023/12/05 01:33:47;;;;;;;40.53;15.90;;;;;;;-2.75;80.10;100831.28;4886513;28;20042;-86
2023/12/05 01:36:20;;;;;;;45.45;16.13;;;-1.00;99.90;;;-2.81;79.90;100826.06;4898768;28;20042;-85
2023/12/05 01:38:46;;;;;;;44.22;17.48;;;;;;;-2.81;80.46;100823.50;4870227;28;20044;-86
2023/12/05 01:41:15;;;;;;;46.05;18.75;;;-1.00;99.90;;;-2.77;80.04;100828.69;4950377;28;20050;-85
2023/12/05 01:44:06;;;;;;;48.25;18.40;;;-1.00;99.90;;;-2.76;80.10;100827.84;4970093;28;20034;-85
2023/12/05 01:46:33;;;;;;;44.60;18.15;;;-1.00;99.90;;;-2.81;80.23;100824.34;4881670;28;20057;-86
2023/12/05 01:49:08;;;;;;;44.17;17.20;;;-1.00;99.90;;;-2.78;80.15;100826.97;4905909;28;20606;-86
2023/12/05 01:51:37;;;;;;;44.03;17.47;;;-1.00;99.90;;;-2.84;79.94;100816.59;4926816;28;20033;-86
2023/12/05 01:54:15;;;;;;;50.35;19.73;;;;;;;-2.83;80.26;100817.47;4898010;28;20891;-86
2023/12/05 01:56:40;;;;;;;44.80;18.08;;;-1.00;99.90;;;-2.85;80.58;100820.03;4951097;28;20049;-85
2023/12/05 01:59:07;;;;;;;50.22;20.95;;;;;;;-2.81;80.53;100819.19;4930024;28;20034;-86
2023/12/05 02:01:38;;;;;;;46.85;19.25;;;0.70;99.90;;;-2.80;80.04;100820.09;4939470;28;20062;-85
2023/12/05 02:04:10;;;;;;;49.50;20.92;;;;;;;-2.81;80.34;100821.78;4913976;28;20115;-84
2023/12/05 02:06:45;;;;;;;48.58;21.33;;;;;;;-2.80;80.56;100818.38;4938715;28;20049;-86
2023/12/05 02:09:21;;;;;;;43.75;17.25;;;;;;;-2.85;80.37;100814.88;4938275;28;20034;-85
2023/12/05 02:11:50;;;;;;;46.30;18.45;;;-1.10;99.90;;;-2.88;80.93;100823.44;4939083;28;20045;-87
2023/12/05 02:14:17;;;;;;;47.55;18.98;;;;;;;-2.89;80.14;100814.00;4865599;28;20489;-86
2023/12/05 02:17:10;;;;;;;54.20;21.63;;;-1.10;99.90;;;-2.90;80.83;100812.25;4889929;28;20097;-86
2023/12/05 02:20:16;;;;;;;51.08;21.15;;;-1.10;99.90;;;-2.90;80.69;100812.25;4882551;28;20034;-85
2023/12/05 02:23:21;;;;;;;55.22;21.33;;;-1.10;99.90;;;-2.94;81.29;100804.47;4885612;28;20471;-84
2023/12/05 02:26:09;;;;;;;49.30;19.85;;;-1.10;99.90;;;-2.97;80.63;100807.03;4922300;28;20043;-85
2023/12/05 02:28:37;;;;;;;50.03;20.33;;;-1.20;99.90;;;-3.02;81.07;100804.41;4879850;28;20907;-85
2023/12/05 02:31:07;;;;;;;50.00;20.83;;;;;;;-3.11;81.56;100801.72;4917004;28;20160;-85
2023/12/05 02:33:41;;;;;;;49.80;21.75;;;;;;;-3.15;81.52;100795.69;4930058;28;20047;-83
2023/12/05 02:36:25;;;;;;;54.47;20.75;;;-1.30;99.90;;;-3.15;82.12;100800.00;4940064;28;20112;-86
2023/12/05 02:39:31;;;;;;;51.78;19.88;;;-1.30;99.90;;;-3.20;82.19;100796.47;4971509;28;20600;-85
2023/12/05 02:41:59;;;;;;;51.78;18.70;;;-1.40;99.90;;;-3.28;81.98;100795.53;4899609;28;20100;-85
2023/12/05 02:44:39;;;;;;;44.63;17.55;;;-1.40;99.90;;;-3.27;82.62;100795.56;4931401;28;20641;-85
2023/12/05 02:47:17;;;;;;;49.17;19.92;;;-1.40;99.90;;;-3.30;82.65;100787.81;4916794;28;20033;-85
2023/12/05 02:49:54;;;;;;;;;;;;;;;;;;;;;
2023/12/05 02:52:20;;;;;;;61.60;23.55;;;-1.40;99.90;;;-3.25;82.29;100793.84;4950768;28;20050;-83
2023/12/05 02:54:48;;;;;;;55.17;18.80;;;-1.50;99.90;;;-3.32;82.75;100790.34;4947886;28;20030;-86
2023/12/05 02:57:15;;;;;;;56.83;23.88;;;-1.50;99.90;;;-3.41;83.42;100786.78;4959419;28;20042;-86
2023/12/05 02:59:50;;;;;;;63.05;23.83;;;-1.50;99.90;;;-3.36;83.33;100782.59;4914137;28;20065;-85
2023/12/05 03:02:17;;;;;;;56.03;22.13;;;-1.60;99.90;;;-3.40;83.23;100791.13;4930159;28;20143;-84
2023/12/05 03:04:51;;;;;;;59.70;24.70;;;-1.50;99.90;;;-3.37;83.42;100783.41;4916267;28;20050;-85
2023/12/05 03:07:17;;;;;;;58.92;23.85;;;-1.60;99.90;;;-3.46;83.53;100786.75;4956780;28;20142;-84
2023/12/05 03:09:43;;;;;;;66.85;25.33;;;;;;;-3.52;84.10;100790.13;4928653;28;20041;-84
2023/12/05 03:12:09;;;;;;;66.72;24.42;;;-1.60;99.90;;;-3.50;83.84;100784.97;4897043;28;20038;-83
2023/12/05 03:14:42;;;;;;;43.30;16.88;;;-1.70;99.90;;;-3.56;84.17;100778.06;4924509;28;20090;-84
2023/12/05 03:17:08;;;;;;;59.05;22.52;;;;;;;-3.51;84.44;100786.69;4900466;28;20049;-85
2023/12/05 03:19:36;;;;;;;44.13;18.40;;;-1.70;99.90;;;-3.56;84.18;100782.34;4896576;28;20042;-84
2023/12/05 03:22:02;;;;;;;66.32;24.70;;;-1.70;99.90;;;-3.52;83.95;100769.53;4882010;28;20039;-84
2023/12/05 03:24:39;;;;;;;64.95;26.98;;;-1.70;99.90;;;-3.60;84.66;100776.31;4902714;28;20035;-85
2023/12/05 03:27:05;;;;;;;68.78;25.65;;;-1.70;99.90;;;-3.62;84.49;100766.84;4924370;28;20080;-85
2023/12/05 03:29:30;;;;;;;59.35;24.73;;;-1.70;99.90;;;-3.65;84.13;100767.66;4874344;28;20730;-83
2023/12/05 03:32:04;;;;;;;63.33;27.20;;;-1.80;99.90;;;-3.67;84.46;100769.38;4906767;28;20026;-85
2023/12/05 03:34:30;;;;;;;69.25;26.38;;;-1.80;99.90;;;-3.69;84.82;100765.91;4921919;28;20057;-83
2023/12/05 03:36:56;;;;;;;66.00;28.05;;;-1.80;99.90;;;-3.69;84.61;100771.06;4900143;28;20439;-85
2023/12/05 03:39:22;;;;;;;60.80;23.77;;;-1.80;99.90;;;-3.75;84.64;100758.97;4924225;28;20415;-83
2023/12/05 03:41:53;;;;;;;47.50;17.80;;;-1.80;99.90;;;-3.81;85.08;100756.31;4915130;28;20525;-86
2023/12/05 03:44:18;;;;;;;60.22;22.60;;;-1.90;99.90;;;-3.83;85.39;100755.41;4913470;28;20042;-85
2023/12/05 03:46:48;;;;;;;56.35;20.10;;;;;;;-3.83;85.32;100752.84;4900133;28;20061;-85
2023/12/05 03:49:14;;;;;;;78.35;29.02;;;-2.00;99.90;;;-3.86;85.69;100751.97;4897033;28;20065;-85
2023/12/05 03:51:48;;;;;;;69.28;26.58;;;-2.00;99.90;;;-3.89;86.04;100751.91;4911212;28;20037;-85
2023/12/05 03:54:14;;;;;;;74.35;28.90;;;-2.00;99.90;;;-3.86;86.00;100754.53;4899852;28;20476;-84
2023/12/05 03:56:41;;;;;;;69.82;26.67;;;;;;;-3.90;85.96;100752.78;4891496;28;20038;-82
2023/12/05 03:59:07;;;;;;;70.45;28.25;;;-2.00;99.90;;;-3.98;86.35;100753.50;4894677;28;20047;-85
2023/12/05 04:01:42;;;;;;;47.47;18.17;;;;;;;-4.01;86.27;100753.50;4935521;28;20072;-84
2023/12/05 04:04:08;;;;;;;78.13;31.25;;;;;;;-3.97;86.93;100757.84;4927381;28;20442;-84
2023/12/05 04:06:34;;;;;;;67.47;26.05;;;-2.10;99.90;;;-3.96;86.76;100761.25;4919389;28;20034;-83
2023/12/05 04:09:07;;;;;;;77.78;27.83;;;-2.10;99.90;;;-3.92;86.40;100750.16;4936792;28;20048;-84
2023/12/05 04:11:37;;;;;;;55.85;20.75;;;-2.10;99.90;;;-3.99;86.26;100753.50;4917909;28;20095;-85
2023/12/05 04:14:02;;;;;;;82.38;32.28;;;-2.10;99.90;;;-3.98;86.56;100752.66;4892829;28;20039;-83
2023/12/05 04:16:32;;;;;;;68.68;26.90;;;;;;;-3.99;86.50;100750.94;4881545;28;20058;-84
2023/12/05 04:18:58;;;;;;;72.25;28.42;;;;;;;-4.05;86.17;100750.84;4912600;28;20035;-85
2023/12/05 04:21:26;;;;;;;78.68;30.42;;;-2.20;99.90;;;-4.01;86.87;100756.06;4884744;28;20042;-82
2023/12/05 04:23:52;;;;;;;78.28;29.40;;;-2.20;99.90;;;-4.04;86.62;100768.88;4862352;28;20118;-83
2023/12/05 04:26:25;;;;;;;76.28;31.38;;;;;;;-3.99;86.96;100756.09;4867547;28;20050;-85
2023/12/05 04:28:51;;;;;;;76.10;29.77;;;;;;;-3.95;86.54;100758.72;4900012;28;20552;-83
2023/12/05 04:31:17;;;;;;;76.88;29.73;;;-2.20;99.90;;;-4.04;86.71;100747.44;4907257;28;20031;-84
2023/12/05 04:33:44;;;;;;;79.57;30.58;;;;;;;-3.99;85.90;100753.50;4909889;28;20046;-83
2023/12/05 04:36:10;;;;;;;85.00;30.60;;;-2.10;99.90;;;-4.03;86.73;100759.47;4925055;28;20515;-84
2023/12/05 04:38:59;;;;;;;49.03;19.55;;;;;;;-4.12;86.30;100757.63;4890750;28;20608;-85
2023/12/05 04:41:33;;;;;;;71.25;27.77;;;-2.20;99.90;;;-4.12;86.39;100757.63;4913809;28;20049;-85
2023/12/05 04:44:00;;;;;;;79.22;29.70;;;-2.30;99.90;;;-4.17;86.64;100756.69;4861346;28;20035;-83
2023/12/05 04:46:28;;;;;;;76.65;27.95;;;-2.30;99.90;;;-4.20;87.20;100754.94;4864514;28;20568;-84
2023/12/05 04:49:07;;;;;;;81.30;33.55;;;;;;;-4.19;86.80;100753.22;4898311;28;20052;-83
2023/12/05 04:51:33;;;;;;;54.05;20.35;;;-2.30;99.90;;;-4.20;86.94;100759.22;4927561;28;20049;-82
2023/12/05 04:54:00;;;;;;;93.30;33.55;;;-2.30;99.90;;;-4.18;87.00;100754.97;4918806;28;20037;-85
2023/12/05 04:56:36;;;;;;;81.85;28.75;;;;;;;-4.15;87.11;100752.44;4906543;28;20046;-85
2023/12/05 04:59:02;;;;;;;82.93;33.60;;;-2.30;99.90;;;-4.12;87.55;100750.78;4903964;28;20034;-83
2023/12/05 05:01:28;;;;;;;81.75;30.67;;;-2.20;99.90;;;-4.09;87.11;100749.94;4911394;28;20064;-85
2023/12/05 05:03:54;;;;;;;78.03;31.95;;;-2.30;99.90;;;-4.08;86.91;100753.38;4967061;28;20031;-85
2023/12/05 05:06:28;;;;;;;71.70;26.70;;;;;;;-4.09;86.76;100757.66;4868632;28;21111;-85
2023/12/05 05:09:12;;;;;;;61.05;22.73;;;-2.30;99.90;;;-4.16;87.07;100761.84;4920465;28;20581;-86
2023/12/05 05:11:38;;;;;;;68.93;26.83;;;-2.30;99.90;;;-4.20;87.16;100756.66;4876753;28;20033;-82
2023/12/05 05:14:16;;;;;;;55.90;22.50;;;-2.30;99.90;;;-4.23;87.79;100756.59;4881325;28;20035;-85
2023/12/05 05:16:42;;;;;;;84.53;32.53;;;-2.30;99.90;;;-4.21;88.20;100763.50;4935048;28;20049;-84
2023/12/05 05:19:15;;;;;;;87.25;34.58;;;-2.30;99.90;;;-4.18;88.02;100765.25;4917208;28;20125;-82
2023/12/05 05:21:40;;;;;;;91.13;34.55;;;-2.30;99.90;;;-4.12;88.03;100762.78;4927316;28;20037;-82
2023/12/05 05:24:09;;;;;;;68.80;25.40;;;;;;;-4.17;88.44;100764.41;4893290;28;20055;-85
2023/12/05 05:26:37;;;;;;;67.53;25.35;;;-2.30;99.90;;;-4.20;87.93;100764.38;4893591;28;20480;-84
2023/12/05 05:29:15;;;;;;;81.72;30.65;;;;;;;-4.16;88.15;100764.44;4883189;28;20054;-84
2023/12/05 05:31:50;;;;;;;87.75;32.33;;;-2.30;99.90;;;-4.16;87.84;100767.00;4933711;28;20037;-83
2023/12/05 05:34:16;;;;;;;;;;;-2.30;99.90;;;-4.28;87.73;100758.25;4919881;28;20057;-84
2023/12/05 05:36:50;;;;;;;69.10;25.75;;;-2.40;99.90;;;-4.29;88.31;100743.66;4940859;28;20012;-82
2023/12/05 05:39:19;;;;;;;81.18;30.70;;;-2.30;99.90;;;-4.21;87.84;100748.09;4913283;28;20060;-83
2023/12/05 05:41:44;;;;;;;82.97;32.42;;;-2.30;99.90;;;-4.25;87.85;100750.59;4876878;28;20055;-84
2023/12/05 05:44:10;;;;;;;90.22;32.20;;;-2.40;99.90;;;-4.25;87.79;100756.59;4890216;28;21086;-85
2023/12/05 05:46:42;;;;;;;87.90;33.80;;;-2.40;99.90;;;-4.25;88.41;100763.44;4896485;28;20035;-84
2023/12/05 05:49:07;;;;;;;81.38;33.83;;;-2.40;99.90;;;-4.21;88.54;100763.50;4932579;28;20055;-83
2023/12/05 05:51:34;;;;;;;74.13;29.88;;;-2.40;99.90;;;-4.21;88.03;100755.78;4911819;28;20053;-83
2023/12/05 05:54:00;;;;;;;80.72;32.70;;;-2.30;99.90;;;-4.21;88.07;100754.91;4923454;28;20534;-84
2023/12/05 05:56:36;;;;;;;85.50;35.47;;;;;;;-4.17;88.39;100759.25;4924683;28;20819;-84
2023/12/05 05:59:03;;;;;;;77.45;31.45;;;;;;;-4.14;87.83;100762.75;4957257;28;20038;-84
2023/12/05 06:01:28;;;;;;;82.43;33.63;;;-2.30;99.90;;;-4.14;87.87;100764.47;4934173;28;20518;-84
2023/12/05 06:03:54;;;;;;;81.05;32.47;;;-2.30;99.90;;;-4.16;87.69;100755.84;4914499;28;20106;-84
2023/12/05 06:06:20;;;;;;;88.25;32.78;;;-2.30;99.90;;;-4.16;87.25;100763.56;5002209;28;20034;-82
2023/12/05 06:08:49;;;;;;;81.55;32.53;;;-2.30;99.90;;;-4.20;87.18;100764.38;4912430;28;20038;-83
2023/12/05 06:11:18;;;;;;;78.78;29.15;;;;;;;-4.25;87.32;100768.59;4943982;28;20042;-85
2023/12/05 06:13:46;;;;;;;78.68;30.88;;;-2.40;99.90;;;-4.28;87.75;100776.25;4936212;28;20639;-84
2023/12/05 06:16:19;;;;;;;84.85;33.15;;;-2.40;99.90;;;-4.27;87.68;100770.28;4934545;28;20027;-84
2023/12/05 06:18:47;;;;;;;80.47;32.15;;;-2.40;99.90;;;-4.24;87.71;100771.16;4898790;28;20386;-84
2023/12/05 06:21:22;;;;;;;85.80;34.60;;;;;;;-4.22;87.99;100769.47;4918950;28;20060;-83
2023/12/05 06:23:48;;;;;;;79.22;33.05;;;;;;;-4.19;87.76;100771.22;4939411;28;20030;-85
2023/12/05 06:26:14;;;;;;;63.42;26.27;;;-2.30;99.90;;;-4.17;87.64;100772.09;4927039;28;20034;-83
2023/12/05 06:28:40;;;;;;;84.35;31.00;;;-2.30;99.90;;;-4.17;87.63;100769.53;4876232;28;20042;-84
2023/12/05 06:31:15;;;;;;;70.95;27.20;;;;;;;-4.18;87.80;100768.69;4907712;28;20735;-85
2023/12/05 06:33:42;;;;;;;60.55;21.52;;;-2.30;99.90;;;-4.18;87.82;100771.25;4907281;28;20128;-84
2023/12/05 06:36:09;;;;;;;64.75;27.00;;;-2.30;99.90;;;-4.23;87.64;100767.75;4916108;28;20081;-84
2023/12/05 06:41:10;;;;;;;79.55;31.13;;;-2.30;99.90;;;-4.18;88.19;100767.81;4957906;28;20743;-86
2023/12/05 06:43:39;;;;;;;56.88;23.98;;;-2.30;99.90;;;-4.20;87.76;100764.38;4903952;28;20037;-85
2023/12/05 06:46:11;;;;;;;62.20;26.83;;;;;;;-4.19;87.88;100763.50;4897418;28;20041;-85
2023/12/05 06:48:39;;;;;;;64.75;27.27;;;;;;;-4.19;87.66;100761.81;4903449;28;20053;-86
2023/12/05 06:51:06;;;;;;;75.90;26.00;;;;;;;-4.18;87.63;100770.41;4927110;28;20125;-86
2023/12/05 06:53:40;;;;;;;71.60;28.73;;;;;;;-4.15;87.58;100775.56;4900866;28;20038;-85
2023/12/05 06:56:20;;;;;;;48.40;17.40;;;;;;;-4.17;87.74;100773.00;4908593;28;20047;-86
2023/12/05 06:58:46;;;;;;;57.15;21.40;;;-2.30;99.90;;;-4.20;87.85;100778.06;4884723;28;20430;-85
2023/12/05 07:01:13;;;;;;;69.80;28.75;;;;;;;-4.16;87.05;100779.00;4932771;28;20039;-85
2023/12/05 07:03:39;;;;;;;69.15;27.40;;;-2.30;99.90;;;-4.21;87.85;100778.03;4917748;28;21260;-85
2023/12/05 07:06:28;;;;;;;53.10;20.30;;;-2.30;99.90;;;-4.23;87.70;100782.31;4899406;28;20034;-86
2023/12/05 07:08:59;;;;;;;73.57;28.95;;;-2.40;99.90;;;-4.25;88.13;100779.72;4909179;28;20048;-86
2023/12/05 07:11:34;;;;;;;64.65;24.20;;;-2.30;99.90;;;-4.21;88.04;100788.34;4899784;28;20046;-85
2023/12/05 07:14:00;;;;;;;70.65;27.92;;;;;;;-4.18;88.33;100776.41;4898664;28;20099;-85
2023/12/05 07:16:38;;;;;;;75.80;30.67;;;;;;;-4.13;87.87;100777.31;4876828;28;20130;-85
2023/12/05 07:19:05;;;;;;;65.78;26.55;;;-2.30;99.90;;;-4.13;88.03;100779.88;4912297;28;20034;-85
2023/12/05 07:21:31;;;;;;;52.67;18.42;;;-2.30;99.90;;;-4.15;87.81;100775.56;4875981;28;20042;-86
2023/12/05 07:24:10;;;;;;;68.60;27.67;;;-2.30;99.90;;;-4.18;88.06;100778.09;4873326;28;21170;-86
2023/12/05 07:27:03;;;;;;;41.60;15.88;;;-2.30;99.90;;;-4.18;88.30;100776.41;4872336;28;20058;-85
2023/12/05 07:29:29;;;;;;;52.30;18.63;;;-2.30;99.90;;;-4.17;88.25;100787.53;4881665;28;20027;-85
2023/12/05 07:32:00;;;;;;;29.65;11.80;;;;;;;-4.15;88.28;100791.00;4891910;28;20041;-85
2023/12/05 07:34:29;;;;;;;68.93;26.35;;;-2.20;99.90;;;-4.12;88.36;100779.06;4921858;28;20050;-86
2023/12/05 07:36:58;;;;;;;44.92;14.90;;;-2.20;99.90;;;-4.08;88.13;100782.56;4934143;28;20121;-85
2023/12/05 07:39:33;;;;;;;65.88;24.35;;;-2.20;99.90;;;-4.07;88.77;100778.25;4919035;28;20509;-85
2023/12/05 07:42:02;;;;;;;53.40;18.98;;;-2.20;99.90;;;-4.05;88.72;100792.00;4900529;28;20049;-85
2023/12/05 07:44:37;;;;;;;33.95;12.25;;;-2.10;99.90;;;-4.01;88.74;100799.78;4893220;28;20041;-86
2023/12/05 07:47:07;;;;;;;49.53;18.08;;;;;;;-3.93;89.06;100793.03;4907658;28;20065;-85
2023/12/05 07:49:56;;;;;;;65.68;25.73;;;-2.10;99.90;;;-3.85;88.75;100794.84;4912514;28;20122;-84
2023/12/05 07:52:22;;;;;;;40.35;15.80;;;-2.00;99.90;;;-3.77;88.67;100804.41;4876774;28;20094;-84
2023/12/05 07:54:48;;;;;;;62.20;24.13;;;-1.90;99.90;;;-3.73;88.37;100801.03;4843337;28;20036;-85
2023/12/05 07:57:15;;;;;;;57.60;25.67;;;-1.90;99.90;;;-3.71;88.14;100791.63;4850984;28;20039;-85
2023/12/05 07:59:49;;;;;;;68.28;23.20;;;;;;;-3.74;87.46;100799.31;4814265;29;20696;-85
2023/12/05 08:02:16;;;;;;;71.43;27.65;;;-1.90;99.90;;;-3.67;87.74;100802.81;4845180;29;20198;-85
2023/12/05 08:04:42;;;;;;;70.78;29.33;;;-1.80;99.90;;;-3.62;87.67;100801.16;4840050;28;20036;-84
2023/12/05 08:07:18;;;;;;;78.97;29.88;;;;;;;-3.53;87.55;100805.56;4864013;28;20665;-84
2023/12/05 08:09:46;;;;;;;79.63;30.20;;;-1.70;99.90;;;-3.47;88.22;100809.91;4899066;28;20450;-85
2023/12/05 08:12:20;;;;;;;78.65;28.27;;;;;;;-3.46;87.64;100807.34;4888505;28;20039;-85
2023/12/05 08:14:48;;;;;;;84.47;31.00;;;;;;;-3.44;87.02;100802.22;4855415;28;20035;-85
2023/12/05 08:17:26;;;;;;;77.53;30.70;;;-1.70;99.90;;;-3.43;87.20;100807.41;4861068;28;20090;-85
2023/12/05 08:19:52;;;;;;;67.90;22.77;;;-1.70;99.90;;;-3.47;86.97;100800.47;4841787;28;20119;-84
2023/12/05 08:22:19;;;;;;;71.07;27.05;;;;;;;-3.43;86.70;100798.81;4864343;28;20042;-85
2023/12/05 08:24:52;;;;;;;77.57;30.85;;;-1.70;99.90;;;-3.43;86.94;100799.69;4871947;28;20043;-85
2023/12/05 08:27:21;;;;;;;81.97;30.67;;;;;;;-3.46;87.09;100797.03;4832420;28;20133;-85
2023/12/05 08:30:19;;;;;;;74.68;25.98;;;-1.60;99.90;;;-3.38;86.90;100802.31;4904585;28;20040;-86
2023/12/05 08:32:58;;;;;;;70.72;28.55;;;;;;;-3.35;87.05;100810.03;4906523;28;20045;-86
2023/12/05 08:35:33;;;;;;;75.93;30.88;;;;;;;-3.31;86.67;100804.94;4897269;28;20614;-85
2023/12/05 08:37:59;;;;;;;87.57;31.13;;;;;;;-3.31;86.78;100804.94;4870961;28;20522;-85
2023/12/05 08:40:50;;;;;;;77.82;30.98;;;;;;;-3.26;86.96;100807.59;4891064;28;20042;-86
2023/12/05 08:43:19;;;;;;;57.25;23.13;;;;;;;-3.24;86.75;100810.16;4929548;28;20033;-85
2023/12/05 08:45:45;;;;;;;72.43;27.95;;;;;;;-3.17;86.38;100811.97;4909315;28;20060;-85
2023/12/05 08:48:13;;;;;;;61.58;21.45;;;-1.40;99.90;;;-3.18;86.49;100805.94;4917135;28;20041;-85
2023/12/05 08:50:42;;;;;;;45.65;15.00;;;;;;;-3.17;86.72;100799.97;4897200;28;20030;-84
2023/12/05 08:53:11;;;;;;;71.13;30.25;;;;;;;-3.09;86.12;100802.59;4885550;28;20504;-85
2023/12/05 08:55:39;;;;;;;71.60;25.10;;;-1.30;99.90;;;-3.05;86.30;100806.94;4911856;28;20065;-85
2023/12/05 08:58:34;;;;;;;70.03;25.65;;;-1.30;99.90;;;-3.00;86.46;100804.41;4870288;28;20552;-85
2023/12/05 09:01:12;;;;;;;63.78;23.33;;;;;;;-2.99;86.07;100809.59;4916251;28;20047;-84
2023/12/05 09:03:38;;;;;;;65.40;27.05;;;-1.20;99.90;;;-2.91;86.03;100814.81;4899659;28;20657;-85
2023/12/05 09:06:14;;;;;;;65.13;26.13;;;-1.20;99.90;;;-2.91;85.72;100807.09;4895690;28;20034;-83
2023/12/05 09:08:40;;;;;;;65.53;26.27;;;;;;;-2.84;85.21;100819.19;4927326;28;20099;-85
2023/12/05 09:11:16;;;;;;;68.00;27.23;;;;;;;-2.83;85.51;100818.34;4929882;28;20050;-85
2023/12/05 09:13:42;;;;;;;44.45;19.15;;;-1.10;99.90;;;-2.83;85.60;100815.78;4930316;28;20543;-84
2023/12/05 09:16:08;;;;;;;59.55;23.27;;;;;;;-2.77;84.95;100828.69;4935688;28;20057;-83
2023/12/05 09:18:37;;;;;;;67.63;28.38;;;;;;;-2.71;84.83;100818.44;4947032;28;20541;-84
2023/12/05 09:21:12;;;;;;;66.03;26.33;;;-1.00;99.90;;;-2.64;85.23;100823.66;4925570;28;20045;-81
2023/12/05 09:23:39;;;;;;;62.70;25.13;;;-1.00;99.90;;;-2.62;85.14;100819.38;4939739;28;20053;-81
2023/12/05 09:26:12;;;;;;;63.92;28.15;;;-0.90;99.90;;;-2.56;84.82;100822.00;4959934;28;20048;-82
2023/12/05 09:28:39;;;;;;;64.22;27.02;;;-0.90;99.90;;;-2.54;84.97;100820.31;4970892;28;20121;-81
2023/12/05 09:31:05;;;;;;;59.95;22.33;;;-0.80;99.90;;;-2.52;84.56;100822.06;4989808;28;20033;-82
2023/12/05 09:33:31;;;;;;;66.43;26.10;;;-0.80;99.90;;;-2.46;84.98;100818.66;4917131;28;20416;-81
2023/12/05 09:36:09;;;;;;;63.78;25.38;;;-0.80;99.90;;;-2.42;84.75;100824.69;4967781;28;20038;-80
2023/12/05 09:38:40;;;;;;;68.30;28.15;;;-0.70;99.90;;;-2.39;84.85;100815.28;4954828;28;20427;-81
2023/12/05 09:41:10;;;;;;;64.85;27.40;;;-0.70;99.90;;;-2.35;84.65;100819.63;4925310;28;20210;-81
2023/12/05 09:43:46;;;;;;;59.13;23.67;;;-0.60;99.90;;;-2.34;84.75;100813.59;4958427;28;20030;-81
2023/12/05 09:46:13;;;;;;;63.03;27.40;;;-0.60;99.90;;;-2.28;84.87;100818.78;4942885;28;20575;-82
2023/12/05 09:49:08;;;;;;;65.03;26.65;;;-0.60;99.90;;;-2.23;84.62;100815.38;4947208;28;20627;-82
2023/12/05 09:51:38;;;;;;;51.40;22.58;;;-0.60;99.90;;;-2.19;84.71;100819.72;4910972;28;20065;-81
2023/12/05 09:54:09;;;;;;;68.45;28.55;;;-0.50;99.90;;;-2.13;84.78;100814.59;4949381;28;20037;-81
2023/12/05 09:56:38;;;;;;;65.15;27.77;;;-0.50;99.90;;;-2.07;84.68;100815.50;4942020;28;20081;-81
2023/12/05 09:59:11;;;;;;;60.35;26.60;;;;;;;-1.99;84.34;100822.44;4937883;28;20383;-82
2023/12/05 10:01:42;;;;;;;47.30;17.17;;;-0.40;99.90;;;-2.03;83.93;100819.00;4934282;28;20512;-81
2023/12/05 10:04:14;;;;;;;73.53;35.55;;;-0.40;99.90;;;-1.96;84.41;100820.75;4951424;28;20483;-82
2023/12/05 10:06:43;;;;;;;64.20;26.92;;;-0.30;99.90;;;-1.91;83.93;100818.19;4941085;28;20049;-81
2023/12/05 10:09:13;;;;;;;65.57;27.48;;;-0.30;99.90;;;-1.89;83.94;100814.75;4938814;28;20040;-81
2023/12/05 10:11:44;;;;;;;68.35;29.45;;;-0.20;99.90;;;-1.86;83.49;100811.31;4951803;28;20046;-81
2023/12/05 10:14:11;;;;;;;62.80;25.75;;;-0.20;99.90;;;-1.86;83.20;100816.47;4931690;28;20046;-80
2023/12/05 10:16:38;;;;;;;65.10;27.25;;;-0.20;99.90;;;-1.87;83.14;100817.34;4945464;28;20504;-81
2023/12/05 10:19:12;;;;;;;64.47;27.85;;;-0.20;99.90;;;-1.91;82.74;100800.13;4921389;28;20620;-80
2023/12/05 10:21:41;;;;;;;65.50;27.90;;;-0.20;99.90;;;-1.92;82.92;100806.16;4945392;28;20321;-82
2023/12/05 10:24:07;;;;;;;63.60;27.58;;;-0.30;99.90;;;-1.96;82.69;100797.50;4922505;28;20048;-81
2023/12/05 10:26:50;;;;;;;69.30;27.15;;;-0.30;99.90;;;-1.97;82.24;100798.34;4911672;28;20038;-85
2023/12/05 10:29:40;;;;;;;50.88;21.17;;;;;;;-1.98;82.39;100801.81;4886601;28;20122;-87
2023/12/05 10:32:27;;;;;;;53.42;18.95;;;-0.30;99.90;;;-2.07;82.77;100797.44;4912702;28;20066;-85
2023/12/05 10:35:12;;;;;;;40.92;16.70;;;-0.40;99.90;;;-2.13;82.65;100791.38;4924763;28;20038;-85
2023/12/05 10:37:41;;;;;;;39.00;15.13;;;-0.40;99.90;;;-2.10;82.32;100778.50;4915288;28;20102;-86
2023/12/05 10:40:20;;;;;;;66.10;27.98;;;-0.40;99.90;;;-2.11;83.14;100776.78;4891375;28;20122;-86